sensor_id;sensor_type;location;lat;lon;timestamp;temperature;humidity
10231;DHT22;5159;49.432;8.680;2022-07-15T00:02:11;18.00;43.80
10231;DHT22;5159;49.432;8.680;2022-07-15T00:04:39;18.10;43.50
10231;DHT22;5159;49.432;8.680;2022-07-15T00:07:06;18.10;41.10
10231;DHT22;5159;49.432;8.680;2022-07-15T00:09:33;18.10;40.00
10231;DHT22;5159;49.432;8.680;2022-07-15T00:12:18;18.10;40.10
10231;DHT22;5159;49.432;8.680;2022-07-15T00:14:45;18.10;39.90
10231;DHT22;5159;49.432;8.680;2022-07-15T00:17:12;18.00;39.80
10231;DHT22;5159;49.432;8.680;2022-07-15T00:19:40;17.90;40.20
10231;DHT22;5159;49.432;8.680;2022-07-15T00:22:07;17.90;41.80
10231;DHT22;5159;49.432;8.680;2022-07-15T00:24:34;17.80;42.30
10231;DHT22;5159;49.432;8.680;2022-07-15T00:27:01;17.80;42.70
10231;DHT22;5159;49.432;8.680;2022-07-15T00:29:29;17.70;42.20
10231;DHT22;5159;49.432;8.680;2022-07-15T00:31:56;17.60;42.10
10231;DHT22;5159;49.432;8.680;2022-07-15T00:34:23;17.70;42.90
10231;DHT22;5159;49.432;8.680;2022-07-15T00:36:51;17.70;42.60
10231;DHT22;5159;49.432;8.680;2022-07-15T00:39:18;17.70;42.70
10231;DHT22;5159;49.432;8.680;2022-07-15T00:41:45;17.70;43.90
10231;DHT22;5159;49.432;8.680;2022-07-15T00:44:12;17.60;43.20
10231;DHT22;5159;49.432;8.680;2022-07-15T00:46:40;17.60;44.60
10231;DHT22;5159;49.432;8.680;2022-07-15T00:49:08;17.60;46.80
10231;DHT22;5159;49.432;8.680;2022-07-15T00:51:38;17.50;47.30
10231;DHT22;5159;49.432;8.680;2022-07-15T00:54:09;17.50;45.00
10231;DHT22;5159;49.432;8.680;2022-07-15T00:56:38;17.40;43.90
10231;DHT22;5159;49.432;8.680;2022-07-15T00:59:06;17.40;42.10
10231;DHT22;5159;49.432;8.680;2022-07-15T01:01:34;17.40;42.40
10231;DHT22;5159;49.432;8.680;2022-07-15T01:04:02;17.30;40.60
10231;DHT22;5159;49.432;8.680;2022-07-15T01:06:30;17.30;40.80
10231;DHT22;5159;49.432;8.680;2022-07-15T01:08:57;17.20;41.40
10231;DHT22;5159;49.432;8.680;2022-07-15T01:11:25;17.20;40.50
10231;DHT22;5159;49.432;8.680;2022-07-15T01:13:56;17.20;42.50
10231;DHT22;5159;49.432;8.680;2022-07-15T01:16:23;17.30;46.40
10231;DHT22;5159;49.432;8.680;2022-07-15T01:18:50;17.20;47.20
10231;DHT22;5159;49.432;8.680;2022-07-15T01:21:18;17.10;44.90
10231;DHT22;5159;49.432;8.680;2022-07-15T01:23:45;17.10;42.90
10231;DHT22;5159;49.432;8.680;2022-07-15T01:26:13;17.00;42.90
10231;DHT22;5159;49.432;8.680;2022-07-15T01:28:41;17.00;42.90
10231;DHT22;5159;49.432;8.680;2022-07-15T01:31:08;17.00;42.80
10231;DHT22;5159;49.432;8.680;2022-07-15T01:33:35;16.90;43.00
10231;DHT22;5159;49.432;8.680;2022-07-15T01:36:05;16.90;45.30
10231;DHT22;5159;49.432;8.680;2022-07-15T01:38:33;16.90;44.80
10231;DHT22;5159;49.432;8.680;2022-07-15T01:41:00;16.90;42.50
10231;DHT22;5159;49.432;8.680;2022-07-15T01:43:27;16.90;42.20
10231;DHT22;5159;49.432;8.680;2022-07-15T01:45:54;16.90;46.20
10231;DHT22;5159;49.432;8.680;2022-07-15T01:48:21;16.90;46.80
10231;DHT22;5159;49.432;8.680;2022-07-15T01:51:05;16.80;46.70
10231;DHT22;5159;49.432;8.680;2022-07-15T01:53:34;16.80;45.00
10231;DHT22;5159;49.432;8.680;2022-07-15T01:56:02;16.80;43.30
10231;DHT22;5159;49.432;8.680;2022-07-15T01:58:29;16.70;43.00
10231;DHT22;5159;49.432;8.680;2022-07-15T02:00:56;16.80;42.50
10231;DHT22;5159;49.432;8.680;2022-07-15T02:03:23;16.70;42.10
10231;DHT22;5159;49.432;8.680;2022-07-15T02:05:50;16.70;41.90
10231;DHT22;5159;49.432;8.680;2022-07-15T02:08:17;16.70;42.30
10231;DHT22;5159;49.432;8.680;2022-07-15T02:10:45;16.70;41.90
10231;DHT22;5159;49.432;8.680;2022-07-15T02:13:13;16.80;42.40
10231;DHT22;5159;49.432;8.680;2022-07-15T02:15:40;16.60;44.40
10231;DHT22;5159;49.432;8.680;2022-07-15T02:18:08;16.50;44.90
10231;DHT22;5159;49.432;8.680;2022-07-15T02:20:36;16.40;44.70
10231;DHT22;5159;49.432;8.680;2022-07-15T02:23:03;16.40;46.30
10231;DHT22;5159;49.432;8.680;2022-07-15T02:25:32;16.40;48.00
10231;DHT22;5159;49.432;8.680;2022-07-15T02:28:03;16.40;48.60
10231;DHT22;5159;49.432;8.680;2022-07-15T02:30:32;16.40;49.70
10231;DHT22;5159;49.432;8.680;2022-07-15T02:32:59;16.30;51.40
10231;DHT22;5159;49.432;8.680;2022-07-15T02:35:26;16.30;52.10
10231;DHT22;5159;49.432;8.680;2022-07-15T02:37:54;16.20;52.60
10231;DHT22;5159;49.432;8.680;2022-07-15T02:40:21;16.10;53.00
10231;DHT22;5159;49.432;8.680;2022-07-15T02:42:50;16.10;53.70
10231;DHT22;5159;49.432;8.680;2022-07-15T02:45:19;16.00;53.30
10231;DHT22;5159;49.432;8.680;2022-07-15T02:47:46;15.90;52.40
10231;DHT22;5159;49.432;8.680;2022-07-15T02:50:17;15.80;53.50
10231;DHT22;5159;49.432;8.680;2022-07-15T02:52:45;15.80;54.00
10231;DHT22;5159;49.432;8.680;2022-07-15T02:55:13;15.90;56.70
10231;DHT22;5159;49.432;8.680;2022-07-15T02:57:41;15.90;56.60
10231;DHT22;5159;49.432;8.680;2022-07-15T03:00:10;15.90;57.30
10231;DHT22;5159;49.432;8.680;2022-07-15T03:02:38;15.80;58.00
10231;DHT22;5159;49.432;8.680;2022-07-15T03:05:06;15.80;59.40
10231;DHT22;5159;49.432;8.680;2022-07-15T03:07:34;15.80;59.40
10231;DHT22;5159;49.432;8.680;2022-07-15T03:10:01;15.80;60.30
10231;DHT22;5159;49.432;8.680;2022-07-15T03:12:27;15.80;61.70
10231;DHT22;5159;49.432;8.680;2022-07-15T03:14:54;15.70;61.80
10231;DHT22;5159;49.432;8.680;2022-07-15T03:17:21;15.70;62.70
10231;DHT22;5159;49.432;8.680;2022-07-15T03:19:50;15.70;64.90
10231;DHT22;5159;49.432;8.680;2022-07-15T03:22:17;15.70;67.30
10231;DHT22;5159;49.432;8.680;2022-07-15T03:24:44;15.70;66.90
10231;DHT22;5159;49.432;8.680;2022-07-15T03:27:11;15.70;67.50
10231;DHT22;5159;49.432;8.680;2022-07-15T03:29:38;15.70;67.40
10231;DHT22;5159;49.432;8.680;2022-07-15T03:32:05;15.70;68.10
10231;DHT22;5159;49.432;8.680;2022-07-15T03:34:32;15.70;67.20
10231;DHT22;5159;49.432;8.680;2022-07-15T03:37:00;15.60;67.50
10231;DHT22;5159;49.432;8.680;2022-07-15T03:39:27;15.60;68.80
10231;DHT22;5159;49.432;8.680;2022-07-15T03:41:54;15.60;69.40
10231;DHT22;5159;49.432;8.680;2022-07-15T03:44:21;15.50;67.70
10231;DHT22;5159;49.432;8.680;2022-07-15T03:46:48;15.50;69.10
10231;DHT22;5159;49.432;8.680;2022-07-15T03:49:16;15.40;69.70
10231;DHT22;5159;49.432;8.680;2022-07-15T03:51:43;15.40;69.30
10231;DHT22;5159;49.432;8.680;2022-07-15T03:54:12;15.40;67.20
10231;DHT22;5159;49.432;8.680;2022-07-15T03:56:39;15.40;70.40
10231;DHT22;5159;49.432;8.680;2022-07-15T03:59:06;15.40;71.10
10231;DHT22;5159;49.432;8.680;2022-07-15T04:01:34;15.40;72.80
10231;DHT22;5159;49.432;8.680;2022-07-15T04:04:01;15.50;75.00
10231;DHT22;5159;49.432;8.680;2022-07-15T04:06:28;15.40;75.30
10231;DHT22;5159;49.432;8.680;2022-07-15T04:08:55;15.40;75.90
10231;DHT22;5159;49.432;8.680;2022-07-15T04:11:23;15.40;78.90
10231;DHT22;5159;49.432;8.680;2022-07-15T04:13:50;15.40;80.20
10231;DHT22;5159;49.432;8.680;2022-07-15T04:16:17;15.40;79.00
10231;DHT22;5159;49.432;8.680;2022-07-15T04:18:44;15.50;78.80
10231;DHT22;5159;49.432;8.680;2022-07-15T04:21:12;15.50;77.60
10231;DHT22;5159;49.432;8.680;2022-07-15T04:23:39;15.50;78.40
10231;DHT22;5159;49.432;8.680;2022-07-15T04:26:06;15.40;79.30
10231;DHT22;5159;49.432;8.680;2022-07-15T04:28:34;15.40;80.60
10231;DHT22;5159;49.432;8.680;2022-07-15T04:31:01;15.30;81.50
10231;DHT22;5159;49.432;8.680;2022-07-15T04:33:28;15.30;82.10
10231;DHT22;5159;49.432;8.680;2022-07-15T04:35:55;15.20;81.60
10231;DHT22;5159;49.432;8.680;2022-07-15T04:38:22;15.20;82.50
10231;DHT22;5159;49.432;8.680;2022-07-15T04:40:49;15.20;83.40
10231;DHT22;5159;49.432;8.680;2022-07-15T04:43:16;15.20;82.90
10231;DHT22;5159;49.432;8.680;2022-07-15T04:45:44;15.20;81.60
10231;DHT22;5159;49.432;8.680;2022-07-15T04:48:11;15.20;82.00
10231;DHT22;5159;49.432;8.680;2022-07-15T04:50:56;15.40;81.40
10231;DHT22;5159;49.432;8.680;2022-07-15T04:53:23;15.40;76.40
10231;DHT22;5159;49.432;8.680;2022-07-15T04:55:50;15.50;80.80
10231;DHT22;5159;49.432;8.680;2022-07-15T04:58:17;15.50;81.10
10231;DHT22;5159;49.432;8.680;2022-07-15T05:00:46;15.50;80.60
10231;DHT22;5159;49.432;8.680;2022-07-15T05:03:14;15.40;81.50
10231;DHT22;5159;49.432;8.680;2022-07-15T05:05:41;15.30;82.60
10231;DHT22;5159;49.432;8.680;2022-07-15T05:08:08;15.30;84.00
10231;DHT22;5159;49.432;8.680;2022-07-15T05:10:35;15.30;83.90
10231;DHT22;5159;49.432;8.680;2022-07-15T05:13:03;15.30;83.90
10231;DHT22;5159;49.432;8.680;2022-07-15T05:15:30;15.30;82.10
10231;DHT22;5159;49.432;8.680;2022-07-15T05:17:58;15.30;82.10
10231;DHT22;5159;49.432;8.680;2022-07-15T05:20:26;15.40;80.70
10231;DHT22;5159;49.432;8.680;2022-07-15T05:22:53;15.50;79.20
10231;DHT22;5159;49.432;8.680;2022-07-15T05:25:20;15.50;79.00
10231;DHT22;5159;49.432;8.680;2022-07-15T05:27:47;15.50;78.70
10231;DHT22;5159;49.432;8.680;2022-07-15T05:30:14;15.60;78.40
10231;DHT22;5159;49.432;8.680;2022-07-15T05:32:42;15.70;79.50
10231;DHT22;5159;49.432;8.680;2022-07-15T05:35:12;15.90;78.10
10231;DHT22;5159;49.432;8.680;2022-07-15T05:37:40;16.00;79.00
10231;DHT22;5159;49.432;8.680;2022-07-15T05:40:09;16.10;80.40
10231;DHT22;5159;49.432;8.680;2022-07-15T05:42:37;16.10;78.80
10231;DHT22;5159;49.432;8.680;2022-07-15T05:45:05;16.30;78.30
10231;DHT22;5159;49.432;8.680;2022-07-15T05:47:33;16.40;77.00
10231;DHT22;5159;49.432;8.680;2022-07-15T05:50:00;16.40;75.60
10231;DHT22;5159;49.432;8.680;2022-07-15T05:52:29;16.60;73.00
10231;DHT22;5159;49.432;8.680;2022-07-15T05:54:56;16.70;70.30
10231;DHT22;5159;49.432;8.680;2022-07-15T05:57:23;16.80;68.90
10231;DHT22;5159;49.432;8.680;2022-07-15T05:59:50;16.90;69.90
10231;DHT22;5159;49.432;8.680;2022-07-15T06:02:17;17.00;68.60
10231;DHT22;5159;49.432;8.680;2022-07-15T06:04:44;17.20;69.80
10231;DHT22;5159;49.432;8.680;2022-07-15T06:07:11;17.30;68.90
10231;DHT22;5159;49.432;8.680;2022-07-15T06:09:40;17.50;69.00
10231;DHT22;5159;49.432;8.680;2022-07-15T06:12:07;17.70;67.50
10231;DHT22;5159;49.432;8.680;2022-07-15T06:14:35;17.90;66.10
10231;DHT22;5159;49.432;8.680;2022-07-15T06:17:02;18.10;65.30
10231;DHT22;5159;49.432;8.680;2022-07-15T06:19:29;18.20;62.20
10231;DHT22;5159;49.432;8.680;2022-07-15T06:21:56;18.30;60.90
10231;DHT22;5159;49.432;8.680;2022-07-15T06:24:23;18.30;59.40
10231;DHT22;5159;49.432;8.680;2022-07-15T06:26:51;18.40;60.40
10231;DHT22;5159;49.432;8.680;2022-07-15T06:29:19;18.40;60.30
10231;DHT22;5159;49.432;8.680;2022-07-15T06:31:46;18.60;60.40
10231;DHT22;5159;49.432;8.680;2022-07-15T06:34:13;18.80;60.00
10231;DHT22;5159;49.432;8.680;2022-07-15T06:36:40;18.90;59.70
10231;DHT22;5159;49.432;8.680;2022-07-15T06:39:07;19.10;59.30
10231;DHT22;5159;49.432;8.680;2022-07-15T06:41:34;19.30;58.70
10231;DHT22;5159;49.432;8.680;2022-07-15T06:44:03;19.50;57.30
10231;DHT22;5159;49.432;8.680;2022-07-15T06:46:31;19.20;54.30
10231;DHT22;5159;49.432;8.680;2022-07-15T06:48:58;19.10;54.90
10231;DHT22;5159;49.432;8.680;2022-07-15T06:51:25;19.10;54.70
10231;DHT22;5159;49.432;8.680;2022-07-15T06:53:52;19.10;54.50
10231;DHT22;5159;49.432;8.680;2022-07-15T06:56:19;19.10;55.00
10231;DHT22;5159;49.432;8.680;2022-07-15T06:58:46;19.10;55.30
10231;DHT22;5159;49.432;8.680;2022-07-15T07:01:14;19.20;54.90
10231;DHT22;5159;49.432;8.680;2022-07-15T07:03:41;19.10;54.40
10231;DHT22;5159;49.432;8.680;2022-07-15T07:06:08;19.40;56.20
10231;DHT22;5159;49.432;8.680;2022-07-15T07:08:35;19.50;54.60
10231;DHT22;5159;49.432;8.680;2022-07-15T07:11:02;20.00;53.70
10231;DHT22;5159;49.432;8.680;2022-07-15T07:13:29;20.40;51.70
10231;DHT22;5159;49.432;8.680;2022-07-15T07:15:56;20.50;51.30
10231;DHT22;5159;49.432;8.680;2022-07-15T07:18:26;20.50;49.70
10231;DHT22;5159;49.432;8.680;2022-07-15T07:20:54;20.50;50.50
10231;DHT22;5159;49.432;8.680;2022-07-15T07:23:22;20.70;50.90
10231;DHT22;5159;49.432;8.680;2022-07-15T07:25:52;21.30;49.40
10231;DHT22;5159;49.432;8.680;2022-07-15T07:28:19;22.00;47.60
10231;DHT22;5159;49.432;8.680;2022-07-15T07:30:46;22.70;46.20
10231;DHT22;5159;49.432;8.680;2022-07-15T07:33:15;22.50;41.10
10231;DHT22;5159;49.432;8.680;2022-07-15T07:35:44;22.70;42.50
10231;DHT22;5159;49.432;8.680;2022-07-15T07:38:12;23.00;42.50
10231;DHT22;5159;49.432;8.680;2022-07-15T07:40:39;23.30;41.80
10231;DHT22;5159;49.432;8.680;2022-07-15T07:43:06;23.80;41.40
10231;DHT22;5159;49.432;8.680;2022-07-15T07:45:33;23.80;40.40
10231;DHT22;5159;49.432;8.680;2022-07-15T07:48:00;24.20;39.40
10231;DHT22;5159;49.432;8.680;2022-07-15T07:50:27;23.90;37.50
10231;DHT22;5159;49.432;8.680;2022-07-15T07:52:55;23.90;37.80
10231;DHT22;5159;49.432;8.680;2022-07-15T07:55:22;24.10;38.80
10231;DHT22;5159;49.432;8.680;2022-07-15T07:57:50;24.50;38.40
10231;DHT22;5159;49.432;8.680;2022-07-15T08:00:18;24.90;37.10
10231;DHT22;5159;49.432;8.680;2022-07-15T08:02:46;25.20;36.60
10231;DHT22;5159;49.432;8.680;2022-07-15T08:05:14;25.30;35.90
10231;DHT22;5159;49.432;8.680;2022-07-15T08:07:41;25.30;34.10
10231;DHT22;5159;49.432;8.680;2022-07-15T08:10:11;25.40;33.80
10231;DHT22;5159;49.432;8.680;2022-07-15T08:12:38;25.30;31.30
10231;DHT22;5159;49.432;8.680;2022-07-15T08:15:08;25.20;34.20
10231;DHT22;5159;49.432;8.680;2022-07-15T08:17:36;25.70;32.60
10231;DHT22;5159;49.432;8.680;2022-07-15T08:20:04;26.00;31.20
10231;DHT22;5159;49.432;8.680;2022-07-15T08:22:33;26.40;29.60
10231;DHT22;5159;49.432;8.680;2022-07-15T08:25:00;26.60;29.00
10231;DHT22;5159;49.432;8.680;2022-07-15T08:27:28;26.50;29.10
10231;DHT22;5159;49.432;8.680;2022-07-15T08:29:56;26.30;28.00
10231;DHT22;5159;49.432;8.680;2022-07-15T08:32:23;26.40;28.60
10231;DHT22;5159;49.432;8.680;2022-07-15T08:34:51;26.10;29.20
10231;DHT22;5159;49.432;8.680;2022-07-15T08:37:18;26.40;29.50
10231;DHT22;5159;49.432;8.680;2022-07-15T08:39:45;26.80;28.80
10231;DHT22;5159;49.432;8.680;2022-07-15T08:42:12;27.30;28.60
10231;DHT22;5159;49.432;8.680;2022-07-15T08:44:41;27.40;25.80
10231;DHT22;5159;49.432;8.680;2022-07-15T08:47:09;27.20;26.80
10231;DHT22;5159;49.432;8.680;2022-07-15T08:49:39;27.50;26.50
10231;DHT22;5159;49.432;8.680;2022-07-15T08:52:06;27.70;25.10
10231;DHT22;5159;49.432;8.680;2022-07-15T08:54:33;27.70;24.70
10231;DHT22;5159;49.432;8.680;2022-07-15T08:57:01;28.10;24.40
10231;DHT22;5159;49.432;8.680;2022-07-15T08:59:28;27.80;25.20
10231;DHT22;5159;49.432;8.680;2022-07-15T09:01:57;28.20;24.30
10231;DHT22;5159;49.432;8.680;2022-07-15T09:04:25;28.20;23.00
10231;DHT22;5159;49.432;8.680;2022-07-15T09:06:52;27.20;24.00
10231;DHT22;5159;49.432;8.680;2022-07-15T09:09:23;27.30;25.00
10231;DHT22;5159;49.432;8.680;2022-07-15T09:12:00;27.90;25.00
10231;DHT22;5159;49.432;8.680;2022-07-15T09:14:28;28.40;23.80
10231;DHT22;5159;49.432;8.680;2022-07-15T09:17:18;28.70;23.40
10231;DHT22;5159;49.432;8.680;2022-07-15T09:20:00;29.10;21.70
10231;DHT22;5159;49.432;8.680;2022-07-15T09:22:29;29.40;21.90
10231;DHT22;5159;49.432;8.680;2022-07-15T09:25:07;29.60;21.30
10231;DHT22;5159;49.432;8.680;2022-07-15T09:27:36;29.50;19.80
10231;DHT22;5159;49.432;8.680;2022-07-15T09:30:18;28.80;21.70
10231;DHT22;5159;49.432;8.680;2022-07-15T09:33:07;29.20;22.20
10231;DHT22;5159;49.432;8.680;2022-07-15T09:35:52;29.70;21.50
10231;DHT22;5159;49.432;8.680;2022-07-15T09:38:37;30.10;20.20
10231;DHT22;5159;49.432;8.680;2022-07-15T09:41:07;29.60;20.90
10231;DHT22;5159;49.432;8.680;2022-07-15T09:43:47;29.70;21.30
10231;DHT22;5159;49.432;8.680;2022-07-15T09:46:15;29.40;20.40
10231;DHT22;5159;49.432;8.680;2022-07-15T09:48:45;29.70;20.30
10231;DHT22;5159;49.432;8.680;2022-07-15T09:51:13;30.00;21.70
10231;DHT22;5159;49.432;8.680;2022-07-15T09:53:41;29.10;19.40
10231;DHT22;5159;49.432;8.680;2022-07-15T09:56:11;27.80;20.60
10231;DHT22;5159;49.432;8.680;2022-07-15T09:58:41;28.40;21.80
10231;DHT22;5159;49.432;8.680;2022-07-15T10:01:10;28.90;21.90
10231;DHT22;5159;49.432;8.680;2022-07-15T10:03:38;29.60;20.90
10231;DHT22;5159;49.432;8.680;2022-07-15T10:06:10;27.90;19.50
10231;DHT22;5159;49.432;8.680;2022-07-15T10:08:38;27.70;22.90
10231;DHT22;5159;49.432;8.680;2022-07-15T10:11:09;27.80;22.50
10231;DHT22;5159;49.432;8.680;2022-07-15T10:14:06;28.10;23.30
10231;DHT22;5159;49.432;8.680;2022-07-15T10:17:20;27.10;21.60
10231;DHT22;5159;49.432;8.680;2022-07-15T10:20:11;25.90;24.10
10231;DHT22;5159;49.432;8.680;2022-07-15T10:22:55;25.70;25.20
10231;DHT22;5159;49.432;8.680;2022-07-15T10:25:35;25.80;25.40
10231;DHT22;5159;49.432;8.680;2022-07-15T10:28:10;25.90;26.60
10231;DHT22;5159;49.432;8.680;2022-07-15T10:30:40;26.90;26.10
10231;DHT22;5159;49.432;8.680;2022-07-15T10:33:16;27.70;24.60
10231;DHT22;5159;49.432;8.680;2022-07-15T10:35:47;28.60;22.80
10231;DHT22;5159;49.432;8.680;2022-07-15T10:38:26;28.30;21.50
10231;DHT22;5159;49.432;8.680;2022-07-15T10:41:07;28.40;22.30
10231;DHT22;5159;49.432;8.680;2022-07-15T10:43:43;29.20;20.70
10231;DHT22;5159;49.432;8.680;2022-07-15T10:46:21;29.90;20.30
10231;DHT22;5159;49.432;8.680;2022-07-15T10:48:49;30.60;20.00
10231;DHT22;5159;49.432;8.680;2022-07-15T10:51:42;30.50;18.80
10231;DHT22;5159;49.432;8.680;2022-07-15T10:54:38;30.70;19.00
10231;DHT22;5159;49.432;8.680;2022-07-15T10:57:06;31.00;18.40
10231;DHT22;5159;49.432;8.680;2022-07-15T10:59:36;31.10;17.60
10231;DHT22;5159;49.432;8.680;2022-07-15T11:02:14;31.30;18.00
10231;DHT22;5159;49.432;8.680;2022-07-15T11:04:43;31.60;16.80
10231;DHT22;5159;49.432;8.680;2022-07-15T11:07:29;31.70;16.40
10231;DHT22;5159;49.432;8.680;2022-07-15T11:10:23;31.20;17.00
10231;DHT22;5159;49.432;8.680;2022-07-15T11:13:05;31.30;16.00
10231;DHT22;5159;49.432;8.680;2022-07-15T11:15:33;30.10;18.30
10231;DHT22;5159;49.432;8.680;2022-07-15T11:18:01;30.40;17.80
10231;DHT22;5159;49.432;8.680;2022-07-15T11:20:35;29.60;16.70
10231;DHT22;5159;49.432;8.680;2022-07-15T11:23:03;28.60;18.50
10231;DHT22;5159;49.432;8.680;2022-07-15T11:25:36;28.00;19.80
10231;DHT22;5159;49.432;8.680;2022-07-15T11:28:07;28.20;20.60
10231;DHT22;5159;49.432;8.680;2022-07-15T11:30:38;27.80;20.10
10231;DHT22;5159;49.432;8.680;2022-07-15T11:33:07;28.40;20.60
10231;DHT22;5159;49.432;8.680;2022-07-15T11:35:54;29.30;20.40
10231;DHT22;5159;49.432;8.680;2022-07-15T11:38:25;29.90;18.50
10231;DHT22;5159;49.432;8.680;2022-07-15T11:40:56;30.00;18.00
10231;DHT22;5159;49.432;8.680;2022-07-15T11:43:41;30.40;18.80
10231;DHT22;5159;49.432;8.680;2022-07-15T11:46:26;29.60;18.00
10231;DHT22;5159;49.432;8.680;2022-07-15T11:48:55;29.30;19.80
10231;DHT22;5159;49.432;8.680;2022-07-15T11:51:26;29.90;19.30
10231;DHT22;5159;49.432;8.680;2022-07-15T11:53:54;30.10;18.30
10231;DHT22;5159;49.432;8.680;2022-07-15T11:56:23;29.20;17.40
10231;DHT22;5159;49.432;8.680;2022-07-15T11:58:52;28.40;19.40
10231;DHT22;5159;49.432;8.680;2022-07-15T12:01:21;27.60;19.10
10231;DHT22;5159;49.432;8.680;2022-07-15T12:03:51;28.10;21.20
10231;DHT22;5159;49.432;8.680;2022-07-15T12:06:21;28.60;20.00
10231;DHT22;5159;49.432;8.680;2022-07-15T12:08:49;29.10;19.50
10231;DHT22;5159;49.432;8.680;2022-07-15T12:11:23;29.40;19.20
10231;DHT22;5159;49.432;8.680;2022-07-15T12:13:54;29.80;18.70
10231;DHT22;5159;49.432;8.680;2022-07-15T12:16:24;30.10;18.30
10231;DHT22;5159;49.432;8.680;2022-07-15T12:18:53;30.30;18.10
10231;DHT22;5159;49.432;8.680;2022-07-15T12:21:21;30.40;18.40
10231;DHT22;5159;49.432;8.680;2022-07-15T12:24:06;30.40;17.70
10231;DHT22;5159;49.432;8.680;2022-07-15T12:26:37;29.30;17.40
10231;DHT22;5159;49.432;8.680;2022-07-15T12:29:07;28.90;18.90
10231;DHT22;5159;49.432;8.680;2022-07-15T12:31:36;29.30;18.30
10231;DHT22;5159;49.432;8.680;2022-07-15T12:34:05;29.10;17.60
10231;DHT22;5159;49.432;8.680;2022-07-15T12:36:37;29.40;18.80
10231;DHT22;5159;49.432;8.680;2022-07-15T12:39:10;29.50;18.00
10231;DHT22;5159;49.432;8.680;2022-07-15T12:41:42;29.60;18.40
10231;DHT22;5159;49.432;8.680;2022-07-15T12:44:10;29.90;18.00
10231;DHT22;5159;49.432;8.680;2022-07-15T12:46:52;30.00;18.10
10231;DHT22;5159;49.432;8.680;2022-07-15T12:49:44;30.20;17.70
10231;DHT22;5159;49.432;8.680;2022-07-15T12:52:31;30.20;17.10
10231;DHT22;5159;49.432;8.680;2022-07-15T12:54:59;29.90;18.40
10231;DHT22;5159;49.432;8.680;2022-07-15T12:57:31;29.70;17.80
10231;DHT22;5159;49.432;8.680;2022-07-15T13:00:01;29.60;17.50
10231;DHT22;5159;49.432;8.680;2022-07-15T13:02:30;28.10;18.10
10231;DHT22;5159;49.432;8.680;2022-07-15T13:04:57;27.40;19.60
10231;DHT22;5159;49.432;8.680;2022-07-15T13:07:25;28.00;19.90
10231;DHT22;5159;49.432;8.680;2022-07-15T13:09:52;28.40;19.80
10231;DHT22;5159;49.432;8.680;2022-07-15T13:12:19;28.70;18.90
10231;DHT22;5159;49.432;8.680;2022-07-15T13:14:47;28.60;18.60
10231;DHT22;5159;49.432;8.680;2022-07-15T13:17:14;28.60;19.20
10231;DHT22;5159;49.432;8.680;2022-07-15T13:19:41;27.40;20.30
10231;DHT22;5159;49.432;8.680;2022-07-15T13:22:08;27.90;20.60
10231;DHT22;5159;49.432;8.680;2022-07-15T13:24:35;28.20;19.90
10231;DHT22;5159;49.432;8.680;2022-07-15T13:27:02;27.60;18.70
10231;DHT22;5159;49.432;8.680;2022-07-15T13:29:29;27.20;21.60
10231;DHT22;5159;49.432;8.680;2022-07-15T13:31:58;27.60;20.90
10231;DHT22;5159;49.432;8.680;2022-07-15T13:34:25;27.30;19.90
10231;DHT22;5159;49.432;8.680;2022-07-15T13:36:52;26.70;20.50
10231;DHT22;5159;49.432;8.680;2022-07-15T13:39:19;26.80;22.50
10231;DHT22;5159;49.432;8.680;2022-07-15T13:41:46;27.40;21.60
10231;DHT22;5159;49.432;8.680;2022-07-15T13:44:13;27.80;21.60
10231;DHT22;5159;49.432;8.680;2022-07-15T13:46:40;28.20;20.30
10231;DHT22;5159;49.432;8.680;2022-07-15T13:49:16;28.60;19.80
10231;DHT22;5159;49.432;8.680;2022-07-15T13:51:42;28.80;18.80
10231;DHT22;5159;49.432;8.680;2022-07-15T13:54:09;27.20;17.50
10231;DHT22;5159;49.432;8.680;2022-07-15T13:56:36;27.50;20.10
10231;DHT22;5159;49.432;8.680;2022-07-15T13:59:03;27.80;19.90
10231;DHT22;5159;49.432;8.680;2022-07-15T14:01:32;27.60;20.40
10231;DHT22;5159;49.432;8.680;2022-07-15T14:03:59;27.60;19.50
10231;DHT22;5159;49.432;8.680;2022-07-15T14:06:27;27.20;19.40
10231;DHT22;5159;49.432;8.680;2022-07-15T14:08:56;26.80;19.80
10231;DHT22;5159;49.432;8.680;2022-07-15T14:11:23;26.70;21.00
10231;DHT22;5159;49.432;8.680;2022-07-15T14:13:50;26.70;19.90
10231;DHT22;5159;49.432;8.680;2022-07-15T14:16:17;26.00;20.40
10231;DHT22;5159;49.432;8.680;2022-07-15T14:18:44;25.90;20.90
10231;DHT22;5159;49.432;8.680;2022-07-15T14:21:13;25.90;21.60
10231;DHT22;5159;49.432;8.680;2022-07-15T14:23:43;26.20;21.50
10231;DHT22;5159;49.432;8.680;2022-07-15T14:26:10;26.60;22.40
10231;DHT22;5159;49.432;8.680;2022-07-15T14:28:38;27.10;21.40
10231;DHT22;5159;49.432;8.680;2022-07-15T14:31:06;27.60;21.00
10231;DHT22;5159;49.432;8.680;2022-07-15T14:33:33;27.30;19.20
10231;DHT22;5159;49.432;8.680;2022-07-15T14:36:00;26.60;19.90
10231;DHT22;5159;49.432;8.680;2022-07-15T14:38:30;26.70;20.80
10231;DHT22;5159;49.432;8.680;2022-07-15T14:40:59;26.30;20.10
10231;DHT22;5159;49.432;8.680;2022-07-15T14:43:26;26.00;20.70
10231;DHT22;5159;49.432;8.680;2022-07-15T14:45:53;25.60;21.10
10231;DHT22;5159;49.432;8.680;2022-07-15T14:48:20;25.80;22.80
10231;DHT22;5159;49.432;8.680;2022-07-15T14:50:47;26.00;20.60
10231;DHT22;5159;49.432;8.680;2022-07-15T14:53:15;25.30;20.40
10231;DHT22;5159;49.432;8.680;2022-07-15T14:55:42;24.90;21.00
10231;DHT22;5159;49.432;8.680;2022-07-15T14:58:10;24.80;21.40
10231;DHT22;5159;49.432;8.680;2022-07-15T15:00:39;24.80;21.30
10231;DHT22;5159;49.432;8.680;2022-07-15T15:03:06;25.00;21.70
10231;DHT22;5159;49.432;8.680;2022-07-15T15:05:33;25.10;21.10
10231;DHT22;5159;49.432;8.680;2022-07-15T15:08:00;25.10;21.60
10231;DHT22;5159;49.432;8.680;2022-07-15T15:10:29;25.30;22.20
10231;DHT22;5159;49.432;8.680;2022-07-15T15:12:56;25.70;21.60
10231;DHT22;5159;49.432;8.680;2022-07-15T15:15:31;26.10;22.40
10231;DHT22;5159;49.432;8.680;2022-07-15T15:17:58;26.40;21.30
10231;DHT22;5159;49.432;8.680;2022-07-15T15:20:25;26.50;20.40
10231;DHT22;5159;49.432;8.680;2022-07-15T15:22:52;26.00;19.30
10231;DHT22;5159;49.432;8.680;2022-07-15T15:25:19;25.90;20.40
10231;DHT22;5159;49.432;8.680;2022-07-15T15:28:00;26.00;20.00
10231;DHT22;5159;49.432;8.680;2022-07-15T15:30:43;25.50;19.90
10231;DHT22;5159;49.432;8.680;2022-07-15T15:33:10;24.80;20.30
10231;DHT22;5159;49.432;8.680;2022-07-15T15:35:37;25.10;21.80
10231;DHT22;5159;49.432;8.680;2022-07-15T15:38:05;25.30;20.40
10231;DHT22;5159;49.432;8.680;2022-07-15T15:40:32;25.60;21.50
10231;DHT22;5159;49.432;8.680;2022-07-15T15:42:59;25.70;20.20
10231;DHT22;5159;49.432;8.680;2022-07-15T15:45:26;25.40;20.10
10231;DHT22;5159;49.432;8.680;2022-07-15T15:47:55;25.20;20.60
10231;DHT22;5159;49.432;8.680;2022-07-15T15:50:22;25.00;20.40
10231;DHT22;5159;49.432;8.680;2022-07-15T15:52:50;24.90;20.60
10231;DHT22;5159;49.432;8.680;2022-07-15T15:55:17;24.80;20.40
10231;DHT22;5159;49.432;8.680;2022-07-15T15:57:44;24.80;21.10
10231;DHT22;5159;49.432;8.680;2022-07-15T16:00:12;24.90;21.10